Time;durP1;ratioP1;P1;durP2;ratioP2;P2;SDS_P1;SDS_P2;PMS_P1;PMS_P2;Temp;Humidity;BMP_temperature;BMP_pressure;BME280_temperature;BME280_humidity;BME280_pressure;Samples;Min_cycle;Max_cycle;Signal;HPM_P1;HPM_P2
2023/07/06 00:00:01;;;;;;;2.70;1.87;;;;;;;;;;6195700;23;20449;-90
2023/07/06 00:02:29;;;;;;;2.20;1.60;;;;;;;;;;6194520;23;20398;-91
2023/07/06 00:05:05;;;;;;;;;;;;;;;;;;;;;
2023/07/06 00:07:32;;;;;;;2.93;1.70;;;;;;;;;;6198248;23;21039;-91
2023/07/06 00:10:00;;;;;;;2.50;1.70;;;;;;;;;;6195958;23;20383;-91
2023/07/06 00:12:29;;;;;;;4.13;1.93;;;;;;;;;;6196857;23;20383;-91
2023/07/06 00:15:00;;;;;;;3.07;1.97;;;;;;;;;;6194744;23;20426;-91
2023/07/06 00:17:26;;;;;;;3.10;2.43;;;;;;;;;;6195815;23;20386;-90
2023/07/06 00:19:52;;;;;;;6.60;2.20;;;;;;;;;;6195575;23;20379;-90
2023/07/06 00:22:18;;;;;;;3.10;1.83;;;;;;;;;;6196388;23;20375;-91
2023/07/06 00:24:46;;;;;;;3.17;2.10;;;;;;;;;;6193611;23;20478;-91
2023/07/06 00:27:15;;;;;;;2.70;1.70;;;;;;;;;;6196706;23;20379;-91
2023/07/06 00:29:56;;;;;;;3.40;1.87;;;;;;;;;;6200917;23;20386;-91
2023/07/06 00:32:28;;;;;;;3.70;2.27;;;;;;;;;;6231459;23;20366;-91
2023/07/06 00:34:55;;;;;;;4.50;1.77;;;;;;;;;;6228175;23;20421;-91
2023/07/06 00:37:32;;;;;;;2.83;2.00;;;;;;;;;;6228147;23;20427;-91
2023/07/06 00:39:58;;;;;;;2.97;1.63;;;;;;;;;;6226322;23;20385;-91
2023/07/06 00:42:24;;;;;;;3.63;1.70;;;;;;;;;;6228478;23;20397;-91
2023/07/06 00:44:58;;;;;;;3.07;2.17;;;;;;;;;;6227223;23;20404;-91
2023/07/06 00:47:38;;;;;;;4.70;1.60;;;;;;;;;;6228907;23;20408;-91
2023/07/06 00:50:08;;;;;;;2.87;1.60;;;;;;;;;;6227571;23;20366;-91
2023/07/06 00:52:35;;;;;;;3.17;1.67;;;;;;;;;;6228498;23;20911;-91
2023/07/06 00:55:02;;;;;;;3.70;1.80;;;;;;;;;;6225377;23;20417;-91
2023/07/06 00:57:28;;;;;;;3.87;2.20;;;;;;;;;;6226454;23;20463;-90
2023/07/06 00:59:54;;;;;;;3.33;1.70;;;;;;;;;;6227142;23;20569;-90
2023/07/06 01:02:20;;;;;;;2.80;2.00;;;;;;;;;;6228899;23;20377;-91
2023/07/06 01:04:46;;;;;;;4.00;2.00;;;;;;;;;;6227470;23;20374;-91
2023/07/06 01:07:14;;;;;;;4.20;1.80;;;;;;;;;;6228211;23;20374;-91
2023/07/06 01:09:40;;;;;;;4.30;1.73;;;;;;;;;;6224619;23;20379;-91
2023/07/06 01:12:06;;;;;;;3.70;1.80;;;;;;;;;;6226568;23;20382;-91
2023/07/06 01:14:32;;;;;;;3.40;2.03;;;;;;;;;;6224139;23;20422;-91
2023/07/06 01:17:04;;;;;;;3.07;1.90;;;;;;;;;;6226006;23;20382;-91
2023/07/06 01:19:50;;;;;;;3.77;1.67;;;;;;;;;;6223425;23;20556;-91
2023/07/06 01:22:23;;;;;;;4.67;1.90;;;;;;;;;;6208946;23;20380;-91
2023/07/06 01:25:04;;;;;;;8.70;2.20;;;;;;;;;;6225436;23;20398;-90
2023/07/06 01:27:50;;;;;;;4.10;1.77;;;;;;;;;;6226957;23;20386;-91
2023/07/06 01:30:24;;;;;;;2.83;1.90;;;;;;;;;;6210250;23;20438;-91
2023/07/06 01:32:52;;;;;;;4.10;1.83;;;;;;;;;;6227948;23;20378;-91
2023/07/06 01:35:29;;;;;;;4.33;1.80;;;;;;;;;;6225754;23;20734;-92
2023/07/06 01:37:55;;;;;;;2.60;1.60;;;;;;;;;;6226089;23;20376;-92
2023/07/06 01:40:22;;;;;;;2.53;1.80;;;;;;;;;;6227315;23;20408;-92
2023/07/06 01:42:47;;;;;;;4.10;2.83;;;;;;;;;;6225266;23;20380;-92
2023/07/06 01:45:16;;;;;;;3.63;1.90;;;;;;;;;;6225710;23;20389;-91
2023/07/06 01:47:49;;;;;;;3.93;2.30;;;;;;;;;;6226653;23;20402;-91
2023/07/06 01:50:15;;;;;;;2.87;1.80;;;;;;;;;;6226536;23;20382;-91
2023/07/06 01:52:41;;;;;;;3.17;1.93;;;;;;;;;;6226838;23;20409;-91
2023/07/06 01:55:09;;;;;;;2.83;1.77;;;;;;;;;;6225447;23;20925;-91
2023/07/06 01:57:40;;;;;;;3.50;1.97;;;;;;;;;;6227135;23;20957;-91
2023/07/06 02:00:09;;;;;;;5.87;1.97;;;;;;;;;;6227542;23;20354;-91
2023/07/06 02:02:35;;;;;;;2.93;2.00;;;;;;;;;;6229192;23;20387;-92
2023/07/06 02:05:02;;;;;;;3.40;2.20;;;;;;;;;;6226376;23;20386;-92
2023/07/06 02:07:28;;;;;;;3.77;2.20;;;;;;;;;;6228218;23;20446;-93
2023/07/06 02:09:54;;;;;;;4.07;2.13;;;;;;;;;;6225868;23;20405;-91
2023/07/06 02:12:21;;;;;;;2.30;1.60;;;;;;;;;;6226970;23;20850;-92
2023/07/06 02:14:48;;;;;;;3.77;1.93;;;;;;;;;;6225803;23;20422;-91
2023/07/06 02:17:15;;;;;;;4.33;2.13;;;;;;;;;;6227587;23;20951;-92
2023/07/06 02:19:41;;;;;;;3.60;2.00;;;;;;;;;;6226661;23;20406;-92
2023/07/06 02:22:08;;;;;;;2.67;1.80;;;;;;;;;;6228536;23;20378;-91
2023/07/06 02:24:34;;;;;;;2.97;2.50;;;;;;;;;;6227805;23;20386;-91
2023/07/06 02:27:00;;;;;;;5.20;2.10;;;;;;;;;;6226826;23;20400;-90
2023/07/06 02:29:26;;;;;;;2.63;2.40;;;;;;;;;;6227518;23;20354;-92
2023/07/06 02:31:53;;;;;;;4.33;1.80;;;;;;;;;;6230302;23;20389;-91
2023/07/06 02:34:24;;;;;;;3.50;2.00;;;;;;;;;;6228914;23;20421;-92
2023/07/06 02:36:51;;;;;;;3.23;1.97;;;;;;;;;;6231465;23;20367;-91
2023/07/06 02:39:20;;;;;;;3.43;2.47;;;;;;;;;;6227053;23;20437;-91
2023/07/06 02:41:46;;;;;;;3.60;2.30;;;;;;;;;;6229385;23;20465;-91
2023/07/06 02:44:12;;;;;;;3.33;2.00;;;;;;;;;;6228081;23;20472;-91
2023/07/06 02:46:38;;;;;;;6.07;2.30;;;;;;;;;;6229573;23;20401;-91
2023/07/06 02:49:05;;;;;;;5.10;2.13;;;;;;;;;;6228739;23;20386;-91
2023/07/06 02:51:34;;;;;;;4.00;2.00;;;;;;;;;;6228375;23;20382;-91
2023/07/06 02:54:00;;;;;;;3.20;2.27;;;;;;;;;;6229066;23;20426;-91
2023/07/06 02:56:26;;;;;;;4.63;1.83;;;;;;;;;;6230651;23;20461;-91
2023/07/06 02:58:52;;;;;;;6.70;2.87;;;;;;;;;;6228399;23;20392;-91
2023/07/06 03:01:18;;;;;;;3.60;1.80;;;;;;;;;;6229291;23;20401;-92
2023/07/06 03:03:44;;;;;;;2.97;2.23;;;;;;;;;;6230417;23;20488;-91
2023/07/06 03:06:12;;;;;;;5.03;2.33;;;;;;;;;;6228558;23;20398;-91
2023/07/06 03:08:38;;;;;;;2.83;1.90;;;;;;;;;;6231144;23;20397;-92
2023/07/06 03:11:04;;;;;;;4.73;2.07;;;;;;;;;;6227205;23;20740;-91
2023/07/06 03:13:31;;;;;;;3.77;2.33;;;;;;;;;;6227364;23;20382;-95
2023/07/06 03:15:58;;;;;;;6.37;2.30;;;;;;;;;;6227368;23;20483;-92
2023/07/06 03:18:24;;;;;;;6.00;2.30;;;;;;;;;;6228222;23;20512;-92
2023/07/06 03:20:50;;;;;;;6.20;2.67;;;;;;;;;;6227439;23;20374;-92
2023/07/06 03:23:18;;;;;;;3.70;2.20;;;;;;;;;;6226937;23;20374;-92
2023/07/06 03:25:44;;;;;;;2.77;1.90;;;;;;;;;;6226982;23;20382;-92
2023/07/06 03:28:10;;;;;;;3.20;2.17;;;;;;;;;;6228451;23;20386;-91
2023/07/06 03:30:36;;;;;;;3.60;1.90;;;;;;;;;;6229085;23;20389;-92
2023/07/06 03:33:02;;;;;;;5.83;3.00;;;;;;;;;;6226883;23;20409;-92
2023/07/06 03:35:30;;;;;;;5.47;2.50;;;;;;;;;;6227901;23;20418;-92
2023/07/06 03:37:58;;;;;;;3.40;2.43;;;;;;;;;;6229444;23;20400;-93
2023/07/06 03:40:26;;;;;;;3.87;1.87;;;;;;;;;;6231449;23;20378;-92
2023/07/06 03:42:56;;;;;;;2.53;1.77;;;;;;;;;;6138114;23;20392;-92
2023/07/06 03:45:22;;;;;;;4.80;2.40;;;;;;;;;;6112959;23;20381;-91
2023/07/06 03:47:49;;;;;;;6.40;2.70;;;;;;;;;;6112271;23;20412;-92
2023/07/06 03:50:16;;;;;;;4.23;2.07;;;;;;;;;;6112081;23;20361;-92
2023/07/06 03:52:42;;;;;;;3.97;2.10;;;;;;;;;;6111318;23;20369;-91
2023/07/06 03:55:08;;;;;;;4.07;2.63;;;;;;;;;;6111533;23;20487;-91
2023/07/06 03:57:34;;;;;;;5.37;2.40;;;;;;;;;;6134808;23;20705;-92
2023/07/06 04:00:00;;;;;;;3.30;2.23;;;;;;;;;;6113854;23;20377;-92
2023/07/06 04:02:26;;;;;;;3.97;2.30;;;;;;;;;;6111479;23;21329;-91
2023/07/06 04:04:53;;;;;;;6.00;2.30;;;;;;;;;;6111359;23;20381;-93
2023/07/06 04:07:19;;;;;;;3.03;2.10;;;;;;;;;;6111390;23;20991;-92
2023/07/06 04:09:45;;;;;;;9.50;2.33;;;;;;;;;;6114434;23;20433;-92
2023/07/06 04:12:13;;;;;;;3.60;2.70;;;;;;;;;;6111928;23;20381;-91
2023/07/06 04:14:39;;;;;;;5.00;2.03;;;;;;;;;;6193474;23;20453;-91
2023/07/06 04:17:07;;;;;;;3.20;2.20;;;;;;;;;;6226281;23;20374;-91
2023/07/06 04:19:34;;;;;;;3.30;2.10;;;;;;;;;;6227680;23;20374;-91
2023/07/06 04:22:00;;;;;;;4.60;2.37;;;;;;;;;;6227128;23;20370;-91
2023/07/06 04:24:31;;;;;;;4.13;2.20;;;;;;;;;;6231174;23;20461;-92
2023/07/06 04:26:57;;;;;;;2.83;2.03;;;;;;;;;;6231332;23;20369;-92
2023/07/06 04:29:23;;;;;;;3.47;2.50;;;;;;;;;;6230804;23;20386;-93
2023/07/06 04:31:49;;;;;;;5.07;2.77;;;;;;;;;;6230321;23;20374;-92
2023/07/06 04:34:16;;;;;;;4.10;2.17;;;;;;;;;;6231089;23;20425;-92
2023/07/06 04:36:42;;;;;;;3.47;2.23;;;;;;;;;;6229352;23;20393;-92
2023/07/06 04:39:09;;;;;;;3.13;2.30;;;;;;;;;;6229091;23;20405;-91
2023/07/06 04:41:37;;;;;;;3.40;2.33;;;;;;;;;;6229470;23;20379;-92
2023/07/06 04:44:03;;;;;;;4.77;2.20;;;;;;;;;;6230333;23;20402;-92
2023/07/06 04:46:29;;;;;;;3.97;2.67;;;;;;;;;;6228663;23;20755;-92
2023/07/06 04:48:55;;;;;;;3.30;2.60;;;;;;;;;;6226649;23;20453;-92
2023/07/06 04:51:21;;;;;;;6.07;2.57;;;;;;;;;;6226928;23;20405;-91
2023/07/06 04:53:48;;;;;;;4.67;2.57;;;;;;;;;;6227693;23;20397;-92
2023/07/06 04:56:14;;;;;;;3.57;2.53;;;;;;;;;;6227336;23;20382;-92
2023/07/06 04:58:41;;;;;;;3.60;2.20;;;;;;;;;;6227312;23;20378;-93
2023/07/06 05:01:07;;;;;;;4.40;2.77;;;;;;;;;;6225627;23;20414;-92
2023/07/06 05:03:35;;;;;;;4.80;2.30;;;;;;;;;;6227702;23;20369;-91
2023/07/06 05:06:02;;;;;;;4.77;2.73;;;;;;;;;;6227886;23;20378;-92
2023/07/06 05:08:28;;;;;;;3.50;2.50;;;;;;;;;;6227945;23;20378;-92
2023/07/06 05:10:54;;;;;;;5.70;2.93;;;;;;;;;;6224283;23;20437;-91
2023/07/06 05:13:21;;;;;;;4.10;2.57;;;;;;;;;;6226593;23;20374;-92
2023/07/06 05:15:48;;;;;;;5.90;2.87;;;;;;;;;;6223044;23;20414;-90
2023/07/06 05:18:14;;;;;;;4.40;3.43;;;;;;;;;;6226199;23;20442;-89
2023/07/06 05:20:40;;;;;;;3.50;2.77;;;;;;;;;;6226467;23;20448;-90
2023/07/06 05:23:08;;;;;;;9.37;3.73;;;;;;;;;;6223866;23;20440;-90
2023/07/06 05:25:34;;;;;;;3.97;3.07;;;;;;;;;;6226932;23;20473;-89
2023/07/06 05:28:00;;;;;;;4.13;2.73;;;;;;;;;;6225670;23;20398;-90
2023/07/06 05:30:26;;;;;;;7.43;2.80;;;;;;;;;;6226682;23;20405;-90
2023/07/06 05:32:52;;;;;;;3.50;2.60;;;;;;;;;;6225331;23;20382;-90
2023/07/06 05:35:18;;;;;;;4.60;3.00;;;;;;;;;;6226514;23;20764;-90
2023/07/06 05:37:44;;;;;;;5.50;2.90;;;;;;;;;;6223816;23;20850;-90
2023/07/06 05:40:10;;;;;;;4.70;2.60;;;;;;;;;;6225167;23;20385;-90
2023/07/06 05:42:36;;;;;;;4.27;3.00;;;;;;;;;;6224682;23;20377;-90
2023/07/06 05:45:02;;;;;;;3.60;2.37;;;;;;;;;;6225745;23;20394;-90
2023/07/06 05:47:28;;;;;;;4.37;2.57;;;;;;;;;;6223948;23;20426;-90
2023/07/06 05:49:56;;;;;;;4.43;3.17;;;;;;;;;;6223797;23;20378;-90
2023/07/06 05:52:22;;;;;;;4.07;2.77;;;;;;;;;;6223147;22;20463;-89
2023/07/06 05:54:48;;;;;;;4.93;2.23;;;;;;;;;;6223152;23;20524;-90
2023/07/06 05:57:16;;;;;;;4.20;2.50;;;;;;;;;;6219408;23;20461;-90
2023/07/06 05:59:43;;;;;;;5.80;2.87;;;;;;;;;;6226497;23;21021;-90
2023/07/06 06:02:12;;;;;;;4.00;2.57;;;;;;;;;;6224030;23;20386;-90
2023/07/06 06:04:41;;;;;;;6.27;2.73;;;;;;;;;;6226150;23;20416;-89
2023/07/06 06:07:07;;;;;;;8.90;2.87;;;;;;;;;;6224747;23;20862;-90
2023/07/06 06:09:33;;;;;;;4.40;2.57;;;;;;;;;;6225258;23;20414;-91
2023/07/06 06:12:00;;;;;;;4.43;2.83;;;;;;;;;;6225675;23;20399;-90
2023/07/06 06:14:26;;;;;;;4.93;2.30;;;;;;;;;;6224781;23;20913;-89
2023/07/06 06:16:52;;;;;;;4.07;2.60;;;;;;;;;;6227894;23;20512;-89
2023/07/06 06:19:18;;;;;;;7.10;2.60;;;;;;;;;;6224312;23;20850;-90
2023/07/06 06:21:44;;;;;;;4.00;2.20;;;;;;;;;;6229282;23;20848;-91
2023/07/06 06:24:10;;;;;;;3.97;2.60;;;;;;;;;;6224312;23;20386;-89
2023/07/06 06:26:36;;;;;;;4.63;2.57;;;;;;;;;;6218694;23;20442;-91
2023/07/06 06:29:03;;;;;;;4.90;1.97;;;;;;;;;;6191708;23;20386;-90
2023/07/06 06:31:29;;;;;;;3.67;2.00;;;;;;;;;;6192747;23;20384;-91
2023/07/06 06:33:55;;;;;;;4.00;1.77;;;;;;;;;;6189513;23;20431;-90
2023/07/06 06:36:22;;;;;;;3.10;2.00;;;;;;;;;;6193697;23;20961;-90
2023/07/06 06:38:49;;;;;;;2.33;1.40;;;;;;;;;;6194413;23;20375;-90
2023/07/06 06:41:15;;;;;;;4.03;2.43;;;;;;;;;;6195207;23;20420;-90
2023/07/06 06:43:41;;;;;;;3.77;1.97;;;;;;;;;;6196246;23;20415;-90
2023/07/06 06:46:08;;;;;;;2.97;1.73;;;;;;;;;;6194404;23;20387;-90
2023/07/06 06:48:34;;;;;;;4.43;2.17;;;;;;;;;;6197697;23;20390;-91
2023/07/06 06:51:00;;;;;;;6.30;2.70;;;;;;;;;;6200890;23;20383;-91
2023/07/06 06:53:26;;;;;;;6.17;2.83;;;;;;;;;;6195429;23;20415;-90
2023/07/06 06:55:52;;;;;;;3.00;2.00;;;;;;;;;;6195526;23;20430;-91
2023/07/06 06:58:20;;;;;;;7.87;2.80;;;;;;;;;;6201985;23;20378;-91
2023/07/06 07:00:49;;;;;;;4.37;2.87;;;;;;;;;;6228422;23;20374;-91
2023/07/06 07:03:15;;;;;;;4.20;2.30;;;;;;;;;;6228570;23;20446;-90
2023/07/06 07:05:41;;;;;;;6.33;2.80;;;;;;;;;;6228498;23;20382;-91
2023/07/06 07:08:07;;;;;;;5.17;2.40;;;;;;;;;;6226696;23;20425;-90
2023/07/06 07:10:37;;;;;;;4.57;2.27;;;;;;;;;;6227026;23;20381;-91
2023/07/06 07:13:03;;;;;;;5.80;2.13;;;;;;;;;;6226463;23;20448;-91
2023/07/06 07:15:32;;;;;;;4.43;2.07;;;;;;;;;;6227918;23;20421;-92
2023/07/06 07:17:59;;;;;;;3.23;1.77;;;;;;;;;;6227658;23;20374;-92
2023/07/06 07:20:26;;;;;;;3.83;1.90;;;;;;;;;;6234340;23;20382;-91
2023/07/06 07:22:54;;;;;;;3.47;2.40;;;;;;;;;;6224370;23;20379;-91
2023/07/06 07:25:20;;;;;;;2.57;1.77;;;;;;;;;;6204980;23;20396;-91
2023/07/06 07:27:46;;;;;;;3.50;2.03;;;;;;;;;;6199797;23;20413;-91
2023/07/06 07:30:12;;;;;;;5.50;2.77;;;;;;;;;;6201805;23;20372;-91
2023/07/06 07:32:38;;;;;;;3.70;2.20;;;;;;;;;;6197385;23;20390;-91
2023/07/06 07:35:07;;;;;;;3.10;2.00;;;;;;;;;;6199203;23;20717;-91
2023/07/06 07:37:33;;;;;;;5.17;2.03;;;;;;;;;;6195097;23;20771;-92
2023/07/06 07:40:05;;;;;;;4.67;3.70;;;;;;;;;;6198131;23;20450;-89
2023/07/06 07:42:31;;;;;;;2.90;2.50;;;;;;;;;;6196348;23;20445;-89
2023/07/06 07:44:57;;;;;;;3.53;2.23;;;;;;;;;;6195381;23;20541;-91
2023/07/06 07:47:24;;;;;;;2.90;1.83;;;;;;;;;;6197697;23;20395;-91
2023/07/06 07:49:50;;;;;;;4.40;2.47;;;;;;;;;;6198093;23;20382;-91
2023/07/06 07:52:17;;;;;;;4.70;2.60;;;;;;;;;;6196546;23;20398;-91
2023/07/06 07:54:43;;;;;;;4.30;2.13;;;;;;;;;;6204284;23;20425;-91
2023/07/06 07:57:10;;;;;;;5.30;2.37;;;;;;;;;;6231280;23;20432;-91
2023/07/06 07:59:36;;;;;;;4.23;2.40;;;;;;;;;;6228922;23;20393;-91
2023/07/06 08:02:02;;;;;;;4.63;2.40;;;;;;;;;;6230205;23;20375;-91
2023/07/06 08:04:28;;;;;;;3.33;2.40;;;;;;;;;;6230669;23;20417;-90
2023/07/06 08:06:54;;;;;;;3.47;2.20;;;;;;;;;;6228066;23;20469;-90
2023/07/06 08:09:20;;;;;;;8.33;3.27;;;;;;;;;;6229535;23;20393;-91
2023/07/06 08:11:47;;;;;;;4.13;2.80;;;;;;;;;;6230150;23;20390;-91
2023/07/06 08:14:13;;;;;;;3.40;2.33;;;;;;;;;;6227966;23;20493;-90
2023/07/06 08:16:42;;;;;;;3.00;2.40;;;;;;;;;;6230053;23;20401;-92
2023/07/06 08:19:08;;;;;;;6.50;2.30;;;;;;;;;;6228665;23;20359;-91
2023/07/06 08:21:34;;;;;;;3.83;2.87;;;;;;;;;;6230837;23;20382;-90
2023/07/06 08:24:00;;;;;;;3.83;2.70;;;;;;;;;;6227267;23;20446;-90
2023/07/06 08:26:31;;;;;;;5.30;2.87;;;;;;;;;;6231691;23;20378;-91
2023/07/06 08:29:00;;;;;;;3.40;2.17;;;;;;;;;;6225999;23;20489;-92
2023/07/06 08:31:27;;;;;;;4.77;2.77;;;;;;;;;;6227866;23;20381;-90
2023/07/06 08:33:53;;;;;;;3.97;2.00;;;;;;;;;;6223872;23;20402;-91
2023/07/06 08:36:22;;;;;;;4.00;2.53;;;;;;;;;;6230675;23;20409;-91
2023/07/06 08:38:48;;;;;;;2.60;2.07;;;;;;;;;;6226017;23;20385;-90
2023/07/06 08:41:34;;;;;;;3.67;2.63;;;;;;;;;;6229617;23;20838;-91
2023/07/06 08:44:01;;;;;;;3.93;2.20;;;;;;;;;;6210911;23;20378;-90
2023/07/06 08:46:30;;;;;;;3.30;2.00;;;;;;;;;;6229211;23;20398;-90
2023/07/06 08:48:56;;;;;;;5.63;2.47;;;;;;;;;;6228123;23;20387;-91
2023/07/06 08:51:30;;;;;;;3.80;2.57;;;;;;;;;;6230367;23;20393;-90
2023/07/06 08:54:00;;;;;;;4.10;2.37;;;;;;;;;;6227933;23;20414;-91
2023/07/06 08:56:26;;;;;;;4.20;2.70;;;;;;;;;;6232682;23;20417;-91
2023/07/06 08:58:54;;;;;;;5.50;2.50;;;;;;;;;;6227938;23;20457;-91
2023/07/06 09:01:22;;;;;;;3.90;2.70;;;;;;;;;;6228775;23;20374;-91
2023/07/06 09:03:55;;;;;;;6.10;2.57;;;;;;;;;;6227844;23;20378;-89
2023/07/06 09:06:26;;;;;;;3.80;2.00;;;;;;;;;;6232082;23;20370;-90
2023/07/06 09:08:53;;;;;;;4.87;2.40;;;;;;;;;;6230618;23;20397;-90
2023/07/06 09:11:22;;;;;;;3.47;2.20;;;;;;;;;;6232351;23;20379;-90
2023/07/06 09:13:49;;;;;;;5.63;2.53;;;;;;;;;;6231128;23;20477;-91
2023/07/06 09:16:18;;;;;;;3.37;2.10;;;;;;;;;;6229797;23;20432;-90
2023/07/06 09:18:44;;;;;;;3.83;2.60;;;;;;;;;;6230194;23;20616;-91
2023/07/06 09:21:10;;;;;;;4.50;2.93;;;;;;;;;;6230902;23;20370;-91
2023/07/06 09:23:36;;;;;;;3.60;2.60;;;;;;;;;;6229002;23;20381;-91
2023/07/06 09:26:05;;;;;;;4.23;2.53;;;;;;;;;;6232125;23;20382;-91
2023/07/06 09:28:31;;;;;;;4.50;2.30;;;;;;;;;;6228244;23;20382;-90
2023/07/06 09:31:07;;;;;;;3.37;2.03;;;;;;;;;;6232195;23;20386;-90
2023/07/06 09:33:34;;;;;;;5.93;2.67;;;;;;;;;;6229722;23;20377;-92
2023/07/06 09:36:00;;;;;;;4.27;2.07;;;;;;;;;;6232566;23;20547;-91
2023/07/06 09:38:27;;;;;;;6.13;2.70;;;;;;;;;;6229882;23;20470;-91
2023/07/06 09:40:53;;;;;;;3.20;2.40;;;;;;;;;;6228385;23;20378;-91
2023/07/06 09:43:27;;;;;;;3.90;2.60;;;;;;;;;;6226753;23;20381;-92
2023/07/06 09:45:53;;;;;;;3.77;2.03;;;;;;;;;;6228314;23;20382;-92
2023/07/06 09:48:28;;;;;;;4.50;2.57;;;;;;;;;;6228251;23;20414;-91
2023/07/06 09:50:56;;;;;;;9.70;4.50;;;;;;;;;;6257290;23;20878;-92
2023/07/06 09:53:28;;;;;;;4.27;2.73;;;;;;;;;;6227636;23;20392;-91
2023/07/06 09:55:54;;;;;;;3.70;2.60;;;;;;;;;;6229145;23;20472;-91
2023/07/06 09:58:24;;;;;;;4.53;2.83;;;;;;;;;;6226975;23;20489;-91
2023/07/06 10:00:52;;;;;;;4.17;2.50;;;;;;;;;;6232290;23;20849;-89
2023/07/06 10:03:51;;;;;;;6.47;2.43;;;;;;;;;;6227839;23;20377;-91
2023/07/06 10:06:26;;;;;;;4.60;2.90;;;;;;;;;;6182691;23;20442;-91
2023/07/06 10:09:15;;;;;;;4.00;3.33;;;;;;;;;;6253996;23;20392;-91
2023/07/06 10:11:55;;;;;;;4.20;2.63;;;;;;;;;;6228697;23;20381;-90
2023/07/06 10:14:48;;;;;;;5.03;2.40;;;;;;;;;;6225724;23;20473;-90
2023/07/06 10:17:20;;;;;;;4.40;2.87;;;;;;;;;;6223422;23;20378;-90
2023/07/06 10:19:46;;;;;;;4.83;2.90;;;;;;;;;;6226633;23;20386;-92
2023/07/06 10:22:13;;;;;;;5.70;2.30;;;;;;;;;;6228797;23;20762;-91
2023/07/06 10:25:00;;;;;;;;;;;;;;;;;;;;;
2023/07/06 10:27:29;;;;;;;6.30;3.63;;;;;;;;;;6213586;23;20422;-90
2023/07/06 10:29:57;;;;;;;3.57;2.43;;;;;;;;;;6227274;23;20839;-93
2023/07/06 10:32:24;;;;;;;5.57;3.47;;;;;;;;;;6231018;23;20969;-91
2023/07/06 10:35:03;;;;;;;5.57;2.43;;;;;;;;;;6226733;23;20414;-91
2023/07/06 10:37:35;;;;;;;3.10;2.13;;;;;;;;;;6228532;23;20396;-91
2023/07/06 10:40:04;;;;;;;3.23;2.53;;;;;;;;;;6227777;23;20370;-90
2023/07/06 10:42:35;;;;;;;3.57;2.73;;;;;;;;;;6227246;23;20386;-90
2023/07/06 10:45:02;;;;;;;3.17;2.33;;;;;;;;;;6228343;23;20428;-91
2023/07/06 10:47:40;;;;;;;5.50;2.27;;;;;;;;;;6227989;23;20401;-92
2023/07/06 10:50:12;;;;;;;2.80;1.97;;;;;;;;;;6225487;23;20370;-90
2023/07/06 10:52:39;;;;;;;3.97;2.50;;;;;;;;;;6227589;23;20776;-90
2023/07/06 10:55:13;;;;;;;4.87;2.47;;;;;;;;;;6228402;23;20438;-90
2023/07/06 10:57:44;;;;;;;3.90;2.90;;;;;;;;;;6232570;23;20463;-91
2023/07/06 11:00:14;;;;;;;4.27;2.40;;;;;;;;;;6228153;23;20374;-91
2023/07/06 11:02:43;;;;;;;3.10;2.40;;;;;;;;;;6232573;23;20390;-91
2023/07/06 11:05:21;;;;;;;4.57;2.70;;;;;;;;;;6230475;23;20865;-91
2023/07/06 11:07:49;;;;;;;4.67;2.87;;;;;;;;;;6258071;23;20442;-90
2023/07/06 11:10:33;;;;;;;5.70;2.80;;;;;;;;;;6231897;23;20370;-91
2023/07/06 11:13:04;;;;;;;4.43;2.27;;;;;;;;;;6229644;23;20385;-89
2023/07/06 11:15:56;;;;;;;7.80;2.40;;;;;;;;;;6229395;23;20444;-89
2023/07/06 11:18:22;;;;;;;4.90;2.90;;;;;;;;;;6223124;23;20871;-89
2023/07/06 11:20:53;;;;;;;4.00;2.50;;;;;;;;;;6196789;23;20433;-89
2023/07/06 11:23:20;;;;;;;2.90;2.33;;;;;;;;;;6198742;23;20393;-89
2023/07/06 11:25:47;;;;;;;5.43;2.87;;;;;;;;;;6198858;23;20429;-90
2023/07/06 11:28:14;;;;;;;4.33;3.07;;;;;;;;;;6199574;23;20405;-90
2023/07/06 11:30:50;;;;;;;4.87;2.67;;;;;;;;;;6196871;23;20417;-91
2023/07/06 11:33:16;;;;;;;3.70;2.60;;;;;;;;;;6200198;23;20536;-90
2023/07/06 11:35:48;;;;;;;4.10;2.30;;;;;;;;;;6197048;23;20424;-90
2023/07/06 11:38:24;;;;;;;4.77;2.50;;;;;;;;;;6196665;23;20900;-91
2023/07/06 11:41:02;;;;;;;5.03;3.07;;;;;;;;;;6199296;23;20786;-91
2023/07/06 11:43:28;;;;;;;3.40;2.40;;;;;;;;;;6196963;23;20375;-90
2023/07/06 11:46:01;;;;;;;3.80;2.63;;;;;;;;;;6199805;23;20871;-91
2023/07/06 11:48:34;;;;;;;4.40;2.53;;;;;;;;;;6199575;23;20730;-91
2023/07/06 11:51:01;;;;;;;3.30;2.53;;;;;;;;;;6227997;23;20385;-91
2023/07/06 11:53:32;;;;;;;4.63;2.77;;;;;;;;;;6227899;23;20858;-90
2023/07/06 11:56:08;;;;;;;5.83;2.43;;;;;;;;;;6229937;23;20414;-90
2023/07/06 11:58:57;;;;;;;2.90;2.33;;;;;;;;;;6228669;23;20381;-89
2023/07/06 12:04:14;;;;;;;3.87;2.57;;;;;;;;;;6234229;23;20353;-90
2023/07/06 12:06:45;;;;;;;3.93;2.57;;;;;;;;;;6226434;23;20371;-90
2023/07/06 12:09:15;;;;;;;4.90;2.60;;;;;;;;;;6229226;23;20363;-90
2023/07/06 12:11:41;;;;;;;3.23;2.23;;;;;;;;;;6225655;23;20846;-90
2023/07/06 12:14:09;;;;;;;3.37;2.33;;;;;;;;;;6226732;23;20419;-90
2023/07/06 12:16:40;;;;;;;5.20;2.30;;;;;;;;;;6226655;23;20381;-91
2023/07/06 12:19:07;;;;;;;5.23;2.80;;;;;;;;;;6228295;23;20928;-91
2023/07/06 12:21:34;;;;;;;4.40;2.70;;;;;;;;;;6226945;23;20400;-90
2023/07/06 12:24:01;;;;;;;4.60;2.90;;;;;;;;;;6229407;23;20371;-90
2023/07/06 12:26:30;;;;;;;3.70;2.67;;;;;;;;;;6231900;23;20385;-91
2023/07/06 12:28:57;;;;;;;3.33;2.10;;;;;;;;;;6228497;23;20405;-90
2023/07/06 12:31:23;;;;;;;5.93;2.70;;;;;;;;;;6231968;23;20400;-89
2023/07/06 12:33:53;;;;;;;5.57;2.77;;;;;;;;;;6226178;23;20389;-90
2023/07/06 12:36:23;;;;;;;4.03;2.40;;;;;;;;;;6233614;23;20414;-90
2023/07/06 12:38:50;;;;;;;4.97;2.67;;;;;;;;;;6230450;23;20343;-92
2023/07/06 12:41:19;;;;;;;3.93;2.37;;;;;;;;;;6230438;23;20386;-89
2023/07/06 12:43:45;;;;;;;3.70;2.90;;;;;;;;;;6227106;23;20374;-91
2023/07/06 12:46:12;;;;;;;5.00;2.37;;;;;;;;;;6227401;23;20383;-90
2023/07/06 12:48:41;;;;;;;7.23;3.10;;;;;;;;;;6226878;23;20373;-89
2023/07/06 12:51:10;;;;;;;12.80;3.37;;;;;;;;;;6225673;23;20737;-91
2023/07/06 12:53:36;;;;;;;3.63;2.87;;;;;;;;;;6225199;23;20372;-89
2023/07/06 12:56:15;;;;;;;7.00;2.93;;;;;;;;;;6227388;23;20521;-89
2023/07/06 12:58:45;;;;;;;3.60;2.43;;;;;;;;;;6224449;23;20400;-91
2023/07/06 13:01:11;;;;;;;4.90;2.40;;;;;;;;;;6229724;23;20417;-91
2023/07/06 13:03:46;;;;;;;3.93;2.80;;;;;;;;;;6225726;23;20371;-91
2023/07/06 13:06:15;;;;;;;7.67;3.17;;;;;;;;;;6228272;23;20374;-88
2023/07/06 13:08:42;;;;;;;4.17;2.80;;;;;;;;;;6226783;23;20389;-89
2023/07/06 13:11:08;;;;;;;4.73;2.57;;;;;;;;;;6225963;23;20432;-89
2023/07/06 13:13:35;;;;;;;3.70;2.20;;;;;;;;;;6226257;23;20385;-89
2023/07/06 13:16:06;;;;;;;3.80;2.53;;;;;;;;;;6227189;23;20512;-90
2023/07/06 13:18:32;;;;;;;3.40;2.50;;;;;;;;;;6229273;23;20379;-91
2023/07/06 13:20:59;;;;;;;4.70;2.97;;;;;;;;;;6226022;23;20378;-89
2023/07/06 13:23:28;;;;;;;6.27;2.70;;;;;;;;;;6256327;22;20469;-90
2023/07/06 13:25:55;;;;;;;4.50;2.40;;;;;;;;;;6227102;23;20362;-89
2023/07/06 13:28:22;;;;;;;3.37;2.00;;;;;;;;;;6228513;23;20366;-89
2023/07/06 13:30:48;;;;;;;5.63;2.77;;;;;;;;;;6227038;23;20398;-89
2023/07/06 13:33:16;;;;;;;7.00;2.60;;;;;;;;;;6228295;23;20393;-90
2023/07/06 13:35:44;;;;;;;3.87;2.50;;;;;;;;;;6224996;23;20766;-89
2023/07/06 13:38:12;;;;;;;2.97;2.27;;;;;;;;;;6229144;23;20492;-89
2023/07/06 13:40:39;;;;;;;3.57;2.70;;;;;;;;;;6225890;23;20421;-91
2023/07/06 13:43:08;;;;;;;4.57;2.70;;;;;;;;;;6229308;23;20389;-89
2023/07/06 13:45:39;;;;;;;4.13;2.43;;;;;;;;;;6226594;23;20426;-89
2023/07/06 13:48:05;;;;;;;4.27;2.70;;;;;;;;;;6226809;23;20406;-91
2023/07/06 13:50:31;;;;;;;4.43;2.43;;;;;;;;;;6226788;23;20374;-90
2023/07/06 13:52:58;;;;;;;5.10;2.60;;;;;;;;;;6228717;23;20413;-90
2023/07/06 13:55:28;;;;;;;4.10;2.63;;;;;;;;;;6228238;23;20425;-88
2023/07/06 13:57:54;;;;;;;4.47;2.90;;;;;;;;;;6223968;23;20362;-90
2023/07/06 14:00:20;;;;;;;4.87;2.73;;;;;;;;;;6229062;23;20381;-90
2023/07/06 14:02:49;;;;;;;4.77;2.70;;;;;;;;;;6225963;23;20384;-90
2023/07/06 14:05:15;;;;;;;3.70;2.30;;;;;;;;;;6229739;23;20406;-89
2023/07/06 14:07:42;;;;;;;6.37;2.80;;;;;;;;;;6229668;23;20378;-90
2023/07/06 14:10:08;;;;;;;4.77;2.50;;;;;;;;;;6225787;23;20378;-90
2023/07/06 14:12:34;;;;;;;4.47;2.57;;;;;;;;;;6227605;23;20397;-90
2023/07/06 14:15:00;;;;;;;5.33;2.90;;;;;;;;;;6225355;23;20434;-90
2023/07/06 14:17:26;;;;;;;3.90;2.60;;;;;;;;;;6230308;23;20393;-90
2023/07/06 14:19:52;;;;;;;3.37;2.50;;;;;;;;;;6225489;23;20768;-89
2023/07/06 14:22:21;;;;;;;4.80;2.40;;;;;;;;;;6227677;23;20378;-88
2023/07/06 14:24:48;;;;;;;4.60;2.97;;;;;;;;;;6226044;23;20424;-89
2023/07/06 14:27:19;;;;;;;4.40;2.63;;;;;;;;;;6230333;23;20917;-91
2023/07/06 14:29:45;;;;;;;3.67;2.47;;;;;;;;;;6229134;23;20449;-91
2023/07/06 14:32:15;;;;;;;2.93;2.33;;;;;;;;;;6232333;22;20425;-89
2023/07/06 14:34:42;;;;;;;6.40;3.23;;;;;;;;;;6231588;23;20422;-87
2023/07/06 14:37:08;;;;;;;4.80;2.50;;;;;;;;;;6231709;23;20369;-87
2023/07/06 14:39:34;;;;;;;3.13;2.47;;;;;;;;;;6228607;23;20382;-87
2023/07/06 14:42:00;;;;;;;6.27;2.90;;;;;;;;;;6228735;23;20417;-89
2023/07/06 14:44:26;;;;;;;3.80;2.67;;;;;;;;;;6228583;23;20389;-87
2023/07/06 14:46:54;;;;;;;3.10;2.37;;;;;;;;;;6229645;23;20437;-88
2023/07/06 14:49:20;;;;;;;3.87;2.60;;;;;;;;;;6229206;23;20416;-90
2023/07/06 14:51:45;;;;;;;6.30;2.50;;;;;;;;;;6232115;23;20374;-87
2023/07/06 14:54:12;;;;;;;6.60;2.33;;;;;;;;;;6227282;23;20421;-87